createdAt,value
2022-09-28T02:37:29.471Z,7.04
2022-09-28T02:40:33.636Z,7.01
2022-09-28T02:43:47.926Z,7.03
2022-09-28T02:47:21.900Z,7.07
2022-09-28T02:50:54.634Z,7.03
2022-09-28T02:54:18.527Z,6.99
2022-09-28T02:57:43.389Z,7.01
2022-09-28T03:01:01.471Z,7.00
2022-09-28T03:04:25.711Z,7.01
2022-09-28T03:08:01.115Z,7.03
2022-09-28T03:11:13.898Z,7.02
2022-09-28T03:14:16.066Z,7.04
2022-09-28T03:17:24.566Z,7.03
2022-09-28T03:20:28.075Z,7.07
2022-09-28T03:23:29.738Z,7.06
2022-09-28T03:26:35.680Z,7.05
2022-09-28T03:42:08.211Z,7.09
2022-09-28T03:53:47.920Z,7.07
2022-09-28T04:01:53.693Z,7.08
2022-09-28T04:10:35.206Z,7.09
2022-09-28T04:13:19.869Z,7.09
2022-09-28T04:16:24.462Z,7.11
2022-09-28T04:19:39.488Z,7.11
2022-09-28T04:22:51.226Z,7.14
2022-09-28T04:26:16.849Z,7.17
2022-09-28T04:29:19.245Z,7.17
2022-09-28T04:32:49.517Z,7.22
2022-09-28T04:35:54.634Z,7.23
2022-09-28T04:40:05.359Z,7.23
2022-09-28T04:42:55.073Z,7.23
2022-09-28T04:50:24.608Z,7.25
2022-09-28T04:53:51.229Z,7.26
2022-09-28T04:56:56.431Z,7.29
2022-09-28T05:00:03.959Z,7.30
2022-09-28T05:03:08.870Z,7.29
2022-09-28T05:06:50.314Z,7.32
2022-09-28T05:09:58.896Z,7.34
2022-09-28T05:14:04.022Z,7.36
2022-09-28T05:16:49.196Z,7.34
2022-09-28T05:20:16.227Z,7.35
2022-09-28T05:23:18.170Z,7.36
2022-09-28T05:26:20.723Z,7.37
2022-09-28T05:29:22.886Z,7.38
2022-09-28T05:32:24.555Z,7.42
2022-09-28T05:35:49.749Z,7.43
2022-09-28T05:38:55.331Z,7.42
2022-09-28T05:41:57.908Z,7.43
2022-09-28T05:44:59.773Z,7.44
2022-09-28T05:48:02.141Z,7.45
2022-09-28T05:51:04.493Z,7.45
2022-09-28T05:54:07.255Z,7.46
2022-09-28T05:57:14.086Z,7.45
2022-09-28T06:00:18.458Z,7.36
2022-09-28T06:03:27.425Z,7.37
2022-09-28T06:06:29.224Z,7.33
2022-09-28T06:09:31.805Z,7.34
2022-09-28T06:12:47.963Z,7.33
2022-09-28T06:15:51.169Z,7.29
2022-09-28T06:18:52.934Z,7.27
2022-09-28T06:22:13.052Z,7.25
2022-09-28T06:25:25.934Z,7.32
2022-09-28T06:28:28.115Z,7.30
2022-09-28T06:31:32.383Z,7.34
2022-09-28T06:34:35.199Z,7.37
2022-09-28T06:37:36.898Z,7.37
2022-09-28T06:40:38.954Z,7.38
2022-09-28T06:43:41.292Z,7.41
2022-09-28T06:47:01.707Z,7.42
2022-09-28T06:50:16.326Z,7.52
2022-09-28T06:54:00.004Z,7.56
2022-09-28T06:57:24.746Z,7.54
2022-09-28T07:00:46.540Z,7.58
2022-09-28T07:03:50.524Z,7.62
2022-09-28T07:07:20.391Z,7.74
2022-09-28T07:10:27.968Z,7.84
2022-09-28T07:13:50.805Z,7.94
2022-09-28T07:17:12.247Z,8.04
2022-09-28T07:20:19.101Z,8.12
2022-09-28T07:23:24.559Z,8.11
2022-09-28T07:26:45.581Z,8.21
2022-09-28T07:30:07.824Z,8.23
2022-09-28T07:33:19.186Z,8.29
2022-09-28T07:36:24.735Z,8.32
2022-09-28T07:39:27.610Z,8.43
2022-09-28T07:42:30.598Z,8.45
2022-09-28T07:45:36.015Z,8.52
2022-09-28T07:48:41.401Z,8.62
2022-09-28T07:51:56.523Z,8.76
2022-09-28T07:55:18.465Z,8.77
2022-09-28T07:58:32.838Z,8.83
2022-09-28T08:01:59.568Z,8.82
2022-09-28T08:05:09.408Z,8.81
2022-09-28T08:08:14.175Z,8.77
2022-09-28T08:11:24.030Z,8.75
2022-09-28T08:14:47.643Z,8.66
2022-09-28T08:18:27.620Z,8.60
2022-09-28T08:22:14.794Z,8.55
2022-09-28T08:25:49.626Z,8.47
2022-09-28T08:29:04.843Z,8.48
2022-09-28T08:32:32.980Z,8.45
2022-09-28T08:36:00.997Z,8.44
2022-09-28T08:39:31.755Z,8.39
2022-09-28T08:42:58.538Z,8.24
2022-09-28T08:50:56.237Z,8.10
2022-09-28T08:55:11.187Z,8.29
2022-09-28T08:59:16.739Z,8.42
2022-09-28T09:26:40.471Z,8.98
2022-09-28T09:30:20.549Z,8.97
2022-09-28T09:34:17.838Z,8.90
2022-09-28T09:38:00.800Z,8.75
2022-09-28T09:41:45.287Z,8.63
2022-09-28T09:45:33.702Z,8.46
2022-09-28T09:48:50.355Z,8.36
2022-09-28T09:52:31.189Z,8.33
2022-09-28T09:55:43.845Z,8.31
2022-09-28T09:59:12.190Z,8.28
2022-09-28T10:02:35.140Z,8.30
2022-09-28T10:05:47.422Z,8.37
2022-09-28T10:09:11.327Z,8.43
2022-09-28T10:12:20.744Z,8.49
2022-09-28T10:15:25.749Z,8.45
2022-09-28T10:18:43.734Z,8.48
2022-09-28T10:22:05.789Z,8.55
2022-09-28T10:25:10.711Z,8.56
2022-09-28T10:28:21.477Z,8.56
2022-09-28T10:31:47.242Z,8.54
2022-09-28T10:35:18.164Z,8.50
2022-09-28T10:38:24.513Z,8.40
2022-09-28T10:41:32.686Z,8.39
2022-09-28T10:45:20.902Z,8.40
2022-09-28T10:48:23.019Z,8.48
2022-09-28T10:51:49.561Z,8.63
2022-09-28T10:54:58.565Z,8.80
2022-09-28T10:58:00.849Z,8.98
2022-09-28T11:01:23.031Z,8.95
2022-09-28T11:04:29.800Z,8.79
2022-09-28T11:07:33.498Z,8.80
2022-09-28T11:10:36.196Z,8.85
2022-09-28T11:13:50.406Z,8.82
2022-09-28T11:17:26.406Z,8.87
2022-09-28T11:20:29.157Z,8.91
2022-09-28T11:23:34.425Z,8.99
2022-09-28T11:26:59.957Z,9.08
2022-09-28T11:30:04.298Z,9.06
2022-09-28T11:33:17.656Z,9.11
2022-09-28T11:37:01.421Z,9.25
2022-09-28T11:40:15.788Z,9.30
2022-09-28T11:43:35.979Z,9.40
2022-09-28T11:46:44.148Z,9.40
2022-09-28T11:49:52.335Z,9.39
2022-09-28T11:53:11.689Z,9.55
2022-09-28T11:56:40.191Z,9.61
2022-09-28T12:00:01.838Z,9.67
2022-09-28T12:03:20.941Z,9.70
2022-09-28T12:06:29.871Z,9.73
2022-09-28T12:09:50.589Z,9.68
2022-09-28T12:13:03.879Z,9.76
2022-09-28T12:16:37.524Z,9.77
2022-09-28T12:20:22.206Z,9.98
2022-09-28T12:23:34.264Z,10.07
2022-09-28T12:26:42.246Z,10.05
2022-09-28T12:29:55.354Z,10.22
2022-09-28T12:33:13.176Z,10.19
2022-09-28T12:36:26.205Z,10.21
2022-09-28T12:39:57.384Z,10.15
2022-09-28T12:43:14.751Z,10.10
2022-09-28T12:47:05.773Z,9.93
2022-09-28T12:50:45.593Z,9.90
2022-09-28T12:53:49.269Z,9.83
2022-09-28T12:57:09.127Z,9.77
2022-09-28T13:00:10.883Z,9.76
2022-09-28T13:03:45.846Z,9.69
2022-09-28T13:07:06.660Z,9.58
2022-09-28T13:10:32.492Z,9.61
2022-09-28T13:13:40.076Z,9.73
2022-09-28T13:16:51.010Z,9.75
2022-09-28T13:20:04.074Z,9.82
2022-09-28T13:23:11.675Z,9.86
2022-09-28T13:26:28.088Z,9.95
2022-09-28T13:29:30.681Z,9.94
2022-09-28T13:32:37.318Z,9.95
2022-09-28T13:35:43.327Z,9.95
2022-09-28T13:38:49.588Z,10.04
2022-09-28T13:41:51.148Z,10.05
2022-09-28T13:45:15.717Z,10.09
2022-09-28T13:48:28.290Z,10.02
2022-09-28T13:51:58.132Z,10.08
2022-09-28T13:55:23.625Z,10.19
2022-09-28T13:58:31.195Z,10.27
2022-09-28T14:01:39.913Z,10.39
2022-09-28T14:04:57.007Z,10.39
2022-09-28T14:08:17.292Z,10.38
2022-09-28T14:11:40.647Z,10.33
2022-09-28T14:14:51.152Z,10.11
2022-09-28T14:18:17.177Z,9.95
2022-09-28T14:21:30.993Z,9.84
2022-09-28T14:24:47.774Z,9.76
2022-09-28T14:28:23.306Z,9.80
2022-09-28T14:31:28.224Z,9.87
2022-09-28T14:34:44.026Z,9.89
2022-09-28T14:38:08.318Z,9.92
2022-09-28T14:41:31.344Z,9.89
2022-09-28T14:45:15.788Z,9.97
2022-09-28T14:48:53.555Z,10.11
2022-09-28T14:51:55.859Z,10.15
2022-09-28T14:54:58.102Z,10.16
2022-09-28T14:57:59.745Z,10.12
2022-09-28T15:01:09.464Z,10.07
2022-09-28T15:04:12.907Z,10.00
2022-09-28T15:07:52.175Z,9.95
2022-09-28T15:10:53.896Z,9.81
2022-09-28T15:14:06.420Z,9.76
2022-09-28T15:17:14.879Z,9.68
2022-09-28T15:20:25.609Z,9.62
2022-09-28T15:23:33.503Z,9.57
2022-09-28T15:26:35.261Z,9.53
2022-09-28T15:29:37.053Z,9.53
2022-09-28T15:32:38.689Z,9.54
2022-09-28T15:35:40.678Z,9.55
2022-09-28T15:38:42.855Z,9.59
2022-09-28T15:41:46.769Z,9.60
2022-09-28T15:45:26.745Z,9.63
2022-09-28T15:48:45.512Z,9.63
2022-09-28T15:51:53.600Z,9.67
2022-09-28T15:54:55.722Z,9.65
2022-09-28T15:58:12.549Z,9.65
2022-09-28T16:01:20.112Z,9.64
2022-09-28T16:04:34.471Z,9.60
2022-09-28T16:07:56.021Z,9.56
2022-09-28T16:11:26.186Z,9.50
2022-09-28T16:14:27.785Z,9.39
2022-09-28T16:17:35.712Z,9.29
2022-09-28T16:20:39.733Z,9.17
2022-09-28T16:23:41.783Z,9.08
2022-09-28T16:26:43.558Z,9.01
2022-09-28T16:30:05.165Z,8.97
2022-09-28T16:33:40.111Z,8.91
2022-09-28T16:36:48.938Z,8.83
2022-09-28T16:39:50.587Z,8.74
2022-09-28T16:42:56.187Z,8.68
2022-09-28T16:46:12.799Z,8.60
2022-09-28T16:49:19.362Z,8.51
2022-09-28T16:52:40.924Z,8.46
2022-09-28T16:55:42.649Z,8.42
2022-09-28T16:58:47.979Z,8.36
2022-09-28T17:01:49.615Z,8.31
2022-09-28T17:04:51.565Z,8.23
2022-09-28T17:08:04.022Z,8.18
2022-09-28T17:11:16.949Z,8.10
2022-09-28T17:14:23.423Z,8.04
2022-09-28T17:17:29.736Z,7.97
2022-09-28T17:20:32.684Z,7.92
2022-09-28T17:23:34.239Z,7.87
2022-09-28T17:26:36.828Z,7.82
2022-09-28T17:29:38.472Z,7.76
2022-09-28T17:32:50.018Z,7.73
2022-09-28T17:35:53.340Z,7.66
2022-09-28T17:38:54.955Z,7.60
2022-09-28T17:41:56.498Z,7.52
2022-09-28T17:44:58.100Z,7.46
2022-09-28T17:48:00.695Z,7.43
2022-09-28T17:51:02.528Z,7.39
2022-09-28T17:54:06.030Z,7.38
2022-09-28T17:57:09.002Z,7.37
